Sanger, California
Current Conditions -  °F | °C
As of 2:53 PM on Friday 28 Nov 2014 (Local Time) from KFAT Reporting Station
Haze Haze  
Wind Chill: 73°   Ceiling: Unl
Heat Index: 73°   Visibility: 4mi
Dew Point: 46°   Wind: 0mph
Humidity: 38%   Direction: NA
Pressure: 29.9"   Gusts: NA
Location:  36.71°N, 119.55°W
Report Text: KFAT 282253Z 00000KT 4SM HZ CLR 23/08 A2990 RMK AO2 SLP124 MTNS OBSCD HZ DSNT N-E T02280078
Loading
Personal Weather Stations






























Interactive Weather Map New forecast layout! Learn more

10-Day Weather Forecast

Advertisements
Track Severe Weather on mobile